Time;durP1;ratioP1;P1;durP2;ratioP2;P2;SDS_P1;SDS_P2;PMS_P1;PMS_P2;Temp;Humidity;BMP_temperature;BMP_pressure;BME280_temperature;BME280_humidity;BME280_pressure;Samples;Min_cycle;Max_cycle;Signal;HPM_P1;HPM_P2
2023/02/19 00:01:30;;;;;;;14.93;10.13;;;11.10;1.00;;;;;;6317065;22;20409;-83
2023/02/19 00:04:04;;;;;;;13.43;10.13;;;11.10;1.00;;;;;;6304573;22;20405;-83
2023/02/19 00:06:31;;;;;;;10.10;8.20;;;11.10;1.00;;;;;;6306680;22;20390;-84
2023/02/19 00:08:57;;;;;;;10.70;8.57;;;11.00;1.00;;;;;;6304802;22;20699;-83
2023/02/19 00:11:25;;;;;;;9.33;8.17;;;11.10;1.00;;;;;;6306317;22;20414;-84
2023/02/19 00:13:54;;;;;;;12.40;9.17;;;11.00;1.00;;;;;;6306183;22;20792;-83
2023/02/19 00:16:27;;;;;;;11.87;8.13;;;11.00;1.00;;;;;;6305323;22;20362;-84
2023/02/19 00:18:55;;;;;;;11.63;9.63;;;11.00;1.00;;;;;;6305983;22;20845;-83
2023/02/19 00:21:21;;;;;;;11.17;8.50;;;11.00;1.00;;;;;;6306263;22;20366;-84
2023/02/19 00:23:57;;;;;;;11.50;9.80;;;11.00;1.00;;;;;;6305598;22;20728;-84
2023/02/19 00:26:23;;;;;;;11.50;9.30;;;11.00;1.00;;;;;;6304685;22;20432;-84
2023/02/19 00:28:49;;;;;;;11.27;9.20;;;11.00;1.00;;;;;;6305358;22;20434;-84
2023/02/19 00:31:19;;;;;;;12.63;9.00;;;11.10;1.00;;;;;;6304429;22;20168;-84
2023/02/19 00:33:46;;;;;;;11.60;9.17;;;11.10;1.00;;;;;;6307225;22;20393;-84
2023/02/19 00:36:13;;;;;;;12.23;8.53;;;11.10;1.00;;;;;;6304202;22;20385;-83
2023/02/19 00:38:40;;;;;;;12.03;7.87;;;11.10;1.00;;;;;;6306560;22;20374;-83
2023/02/19 00:41:18;;;;;;;8.73;6.30;;;11.10;1.00;;;;;;6304615;22;20414;-84
2023/02/19 00:44:05;;;;;;;8.07;6.43;;;11.10;1.00;;;;;;6306490;22;20389;-84
2023/02/19 00:46:37;;;;;;;8.77;6.00;;;11.10;1.00;;;;;;6303722;22;20378;-84
2023/02/19 00:49:05;;;;;;;9.30;6.27;;;11.10;1.00;;;;;;6304082;22;20373;-84
2023/02/19 00:51:36;;;;;;;7.57;6.20;;;11.10;1.00;;;;;;6305510;22;20410;-84
2023/02/19 00:54:02;;;;;;;7.10;5.27;;;11.10;1.00;;;;;;6304988;22;20711;-84
2023/02/19 00:56:28;;;;;;;7.10;6.00;;;11.10;1.00;;;;;;6305927;22;20370;-86
2023/02/19 00:58:55;;;;;;;8.43;6.67;;;11.10;1.00;;;;;;6307832;22;21048;-84
2023/02/19 01:01:20;;;;;;;8.77;6.23;;;11.10;1.00;;;;;;6306369;22;20377;-85
2023/02/19 01:03:46;;;;;;;8.57;7.17;;;11.10;1.00;;;;;;6307382;22;20402;-85
2023/02/19 01:06:14;;;;;;;10.93;7.00;;;11.10;1.00;;;;;;6307450;22;20148;-84
2023/02/19 01:08:39;;;;;;;9.20;7.47;;;11.10;1.00;;;;;;6306847;22;20151;-84
2023/02/19 01:11:09;;;;;;;9.93;7.70;;;11.10;1.00;;;;;;6307083;22;20440;-84
2023/02/19 01:13:35;;;;;;;10.63;9.10;;;11.10;1.00;;;;;;6308252;22;20168;-84
2023/02/19 01:16:08;;;;;;;15.33;8.40;;;11.10;1.00;;;;;;6306606;22;20381;-84
2023/02/19 01:18:35;;;;;;;8.30;7.00;;;11.10;1.00;;;;;;6307883;22;20825;-85
2023/02/19 01:21:08;;;;;;;11.27;8.47;;;11.10;1.00;;;;;;6306278;22;20834;-84
2023/02/19 01:23:34;;;;;;;8.20;6.67;;;11.20;1.00;;;;;;6307496;22;20393;-84
2023/02/19 01:26:06;;;;;;;9.23;7.30;;;11.20;1.00;;;;;;6307919;22;20443;-85
2023/02/19 01:28:32;;;;;;;10.40;7.97;;;11.20;1.00;;;;;;6308859;22;20928;-84
2023/02/19 01:31:04;;;;;;;11.03;6.93;;;11.20;1.00;;;;;;6307732;22;20468;-84
2023/02/19 01:33:31;;;;;;;10.57;7.27;;;11.20;1.00;;;;;;6306591;22;20202;-85
2023/02/19 01:35:56;;;;;;;11.90;8.10;;;11.20;1.00;;;;;;6307632;22;20366;-84
2023/02/19 01:38:22;;;;;;;9.70;7.27;;;11.20;1.00;;;;;;6308593;22;20374;-84
2023/02/19 01:41:02;;;;;;;9.47;7.70;;;11.20;1.00;;;;;;6317902;22;20151;-84
2023/02/19 01:43:28;;;;;;;10.13;7.90;;;11.20;1.00;;;;;;6308417;22;20186;-85
2023/02/19 01:45:53;;;;;;;18.53;8.60;;;11.20;1.00;;;;;;6311084;22;20413;-86
2023/02/19 01:48:34;;;;;;;10.57;7.60;;;11.10;1.00;;;;;;6312534;22;20192;-84
2023/02/19 01:51:13;;;;;;;12.27;8.50;;;11.20;1.00;;;;;;6311602;22;20414;-84
2023/02/19 01:53:44;;;;;;;8.83;6.77;;;11.20;1.00;;;;;;6312838;22;20775;-84
2023/02/19 01:56:12;;;;;;;10.57;8.00;;;11.10;1.00;;;;;;6311274;22;20357;-85
2023/02/19 01:58:38;;;;;;;11.87;8.50;;;11.10;1.00;;;;;;6310041;22;20405;-85
2023/02/19 02:01:07;;;;;;;11.57;8.50;;;11.10;1.00;;;;;;6312383;22;20371;-84
2023/02/19 02:03:35;;;;;;;14.63;9.00;;;11.10;1.00;;;;;;6310554;22;20413;-84
2023/02/19 02:06:07;;;;;;;12.60;8.50;;;11.10;1.00;;;;;;6312826;22;20382;-84
2023/02/19 02:11:18;;;;;;;12.53;9.57;;;11.10;1.00;;;;;;6313337;22;20441;-84
2023/02/19 02:13:45;;;;;;;12.40;8.60;;;11.10;1.00;;;;;;6309669;22;20410;-85
2023/02/19 02:16:32;;;;;;;14.17;9.53;;;11.10;1.00;;;;;;6312144;22;20378;-85
2023/02/19 02:19:20;;;;;;;10.43;8.30;;;11.10;1.00;;;;;;6312273;22;20412;-86
2023/02/19 02:22:05;;;;;;;13.90;8.97;;;11.10;1.00;;;;;;6311380;22;20385;-84
2023/02/19 02:24:50;;;;;;;11.27;7.83;;;11.00;1.00;;;;;;6313724;22;20444;-84
2023/02/19 02:27:27;;;;;;;16.53;8.63;;;11.10;1.00;;;;;;6311347;22;20849;-85
2023/02/19 02:30:22;;;;;;;12.03;9.43;;;11.10;1.00;;;;;;6311751;22;20358;-83
2023/02/19 02:32:56;;;;;;;12.50;9.07;;;11.10;1.00;;;;;;6313241;22;20402;-85
2023/02/19 02:35:33;;;;;;;11.30;8.63;;;11.10;1.00;;;;;;6313244;22;20369;-84
2023/02/19 02:38:05;;;;;;;14.73;9.07;;;11.10;1.00;;;;;;6312607;22;20399;-85
2023/02/19 02:40:31;;;;;;;11.90;8.57;;;11.10;1.00;;;;;;6313435;22;20738;-84
2023/02/19 02:42:58;;;;;;;15.63;9.30;;;11.10;1.00;;;;;;6312989;22;20384;-84
2023/02/19 02:45:34;;;;;;;17.00;9.80;;;11.10;1.00;;;;;;6313420;22;20179;-84
2023/02/19 02:48:02;;;;;;;13.90;8.87;;;11.10;1.00;;;;;;6311592;22;20353;-84
2023/02/19 02:50:51;;;;;;;12.83;9.60;;;11.10;1.00;;;;;;6312877;22;20417;-84
2023/02/19 02:56:11;;;;;;;13.00;9.80;;;11.10;1.00;;;;;;6313641;22;20361;-85
2023/02/19 02:58:37;;;;;;;16.90;9.77;;;11.10;1.00;;;;;;6314320;22;20737;-84
2023/02/19 03:04:29;;;;;;;18.60;10.77;;;11.10;1.00;;;;;;6312119;22;20443;-85
2023/02/19 03:06:59;;;;;;;14.37;9.77;;;11.10;1.00;;;;;;6313661;22;20358;-84
2023/02/19 03:09:40;;;;;;;19.97;9.40;;;11.10;1.00;;;;;;6312130;22;20788;-85
2023/02/19 03:20:45;;;;;;;15.57;9.90;;;11.10;1.00;;;;;;6310698;22;20432;-84
2023/02/19 03:23:13;;;;;;;16.00;9.33;;;11.10;1.00;;;;;;6312958;22;20463;-85
2023/02/19 03:31:18;;;;;;;15.83;9.00;;;11.10;1.00;;;;;;6295268;22;20472;-85
2023/02/19 03:33:47;;;;;;;17.23;9.60;;;11.10;1.00;;;;;;6326814;22;20397;-84
2023/02/19 03:36:14;;;;;;;17.57;9.67;;;11.10;1.00;;;;;;6309196;22;20378;-85
2023/02/19 03:38:55;;;;;;;19.97;10.27;;;11.10;1.00;;;;;;6308022;22;20374;-85
2023/02/19 03:41:46;;;;;;;21.30;11.03;;;11.10;1.00;;;;;;6308087;22;20351;-85
2023/02/19 03:44:43;;;;;;;25.33;12.20;;;11.10;1.00;;;;;;6308661;22;20378;-85
2023/02/19 03:47:18;;;;;;;15.57;11.00;;;11.10;1.00;;;;;;6309002;22;20373;-84
2023/02/19 03:49:55;;;;;;;20.73;11.17;;;11.00;1.00;;;;;;6308974;22;20906;-85
2023/02/19 03:52:27;;;;;;;19.40;11.50;;;11.00;1.00;;;;;;6307372;22;20397;-84
2023/02/19 03:55:07;;;;;;;22.70;11.73;;;11.00;1.00;;;;;;6304362;22;20374;-84
2023/02/19 03:57:44;;;;;;;19.37;11.50;;;11.00;1.00;;;;;;6308972;22;20810;-84
2023/02/19 04:00:15;;;;;;;18.53;11.80;;;11.00;1.00;;;;;;6309104;22;20346;-84
2023/02/19 04:03:07;;;;;;;23.27;11.80;;;10.90;1.00;;;;;;6308087;22;20712;-84
2023/02/19 04:05:38;;;;;;;27.40;12.93;;;10.90;1.00;;;;;;6307662;22;20797;-84
2023/02/19 04:08:15;;;;;;;24.23;12.27;;;10.90;1.00;;;;;;6306152;22;20370;-84
2023/02/19 04:10:41;;;;;;;22.77;13.33;;;10.90;1.00;;;;;;6304471;22;20434;-85
2023/02/19 04:13:17;;;;;;;23.80;12.77;;;10.90;1.00;;;;;;6305216;22;20402;-85
2023/02/19 04:15:44;;;;;;;21.97;13.77;;;10.90;1.00;;;;;;6306176;22;20891;-84
2023/02/19 04:18:17;;;;;;;24.47;14.60;;;10.90;1.00;;;;;;6307607;22;20700;-84
2023/02/19 04:20:45;;;;;;;25.07;13.90;;;10.80;1.00;;;;;;6309634;22;20458;-84
2023/02/19 04:23:11;;;;;;;21.83;14.70;;;10.80;1.00;;;;;;6309951;22;20477;-84
2023/02/19 04:25:40;;;;;;;20.70;13.50;;;10.80;1.00;;;;;;6309220;22;20434;-84
2023/02/19 04:28:07;;;;;;;25.23;14.97;;;10.80;1.00;;;;;;6309646;22;20508;-84
2023/02/19 04:30:32;;;;;;;25.37;15.47;;;10.80;1.00;;;;;;6307692;22;20418;-85
2023/02/19 04:32:58;;;;;;;23.33;16.03;;;10.80;1.00;;;;;;6307914;22;20918;-85
2023/02/19 04:35:23;;;;;;;29.13;15.17;;;10.70;1.00;;;;;;6308046;22;20163;-84
2023/02/19 04:37:49;;;;;;;27.53;15.57;;;10.70;1.00;;;;;;6306868;22;20139;-84
2023/02/19 04:40:14;;;;;;;21.43;14.23;;;10.70;1.00;;;;;;6307050;22;20178;-85
2023/02/19 04:42:40;;;;;;;29.27;16.13;;;10.70;1.00;;;;;;6304883;22;20163;-84
2023/02/19 04:45:06;;;;;;;30.07;17.60;;;10.70;1.00;;;;;;6304013;22;20504;-85
2023/02/19 04:47:31;;;;;;;29.57;17.30;;;10.70;1.00;;;;;;6306013;22;20471;-84
2023/02/19 04:49:57;;;;;;;37.87;17.30;;;10.70;1.00;;;;;;6306266;22;20779;-85
2023/02/19 04:52:22;;;;;;;31.80;17.97;;;10.60;1.00;;;;;;6304491;22;20183;-84
2023/02/19 04:54:48;;;;;;;29.97;17.23;;;10.60;1.00;;;;;;6306963;22;20144;-84
2023/02/19 04:57:14;;;;;;;30.23;17.30;;;10.60;1.00;;;;;;6306172;22;20144;-85
2023/02/19 04:59:39;;;;;;;26.37;16.37;;;10.60;1.00;;;;;;6306699;22;20151;-84
2023/02/19 05:02:05;;;;;;;27.40;17.13;;;10.60;1.00;;;;;;6304034;22;20238;-84
2023/02/19 05:04:30;;;;;;;25.00;17.23;;;10.60;1.00;;;;;;6303982;22;20172;-85
2023/02/19 05:06:56;;;;;;;35.47;17.40;;;10.60;1.00;;;;;;6305094;22;20179;-85
2023/02/19 05:09:21;;;;;;;28.60;16.80;;;10.70;1.00;;;;;;6305767;22;20146;-84
2023/02/19 05:11:47;;;;;;;39.03;16.60;;;10.70;1.00;;;;;;6304078;22;20176;-85
2023/02/19 05:14:12;;;;;;;28.13;16.07;;;10.70;1.00;;;;;;6303932;22;20160;-85
2023/02/19 05:16:38;;;;;;;28.27;16.00;;;10.70;1.00;;;;;;6305366;22;20175;-84
2023/02/19 05:19:03;;;;;;;25.93;14.30;;;10.60;1.00;;;;;;6303067;22;20147;-84
2023/02/19 05:21:29;;;;;;;26.50;15.70;;;10.60;1.00;;;;;;6306053;22;20158;-84
2023/02/19 05:23:54;;;;;;;24.33;15.77;;;10.60;1.00;;;;;;6305140;22;20178;-84
2023/02/19 05:26:22;;;;;;;30.53;16.53;;;10.60;1.00;;;;;;6304302;22;20156;-84
2023/02/19 05:28:52;;;;;;;33.60;16.30;;;10.60;1.00;;;;;;6306095;22;20583;-84
2023/02/19 05:31:17;;;;;;;22.80;15.17;;;10.60;1.00;;;;;;6305867;22;20425;-86
2023/02/19 05:33:47;;;;;;;29.67;15.50;;;10.60;1.00;;;;;;6307140;22;20390;-84
2023/02/19 05:36:13;;;;;;;22.20;14.93;;;10.50;1.00;;;;;;6306706;22;20369;-84
2023/02/19 05:38:40;;;;;;;25.77;14.40;;;10.50;1.00;;;;;;6306747;22;20842;-84
2023/02/19 05:41:13;;;;;;;25.10;14.60;;;10.50;1.00;;;;;;6305458;22;20393;-85
2023/02/19 05:43:43;;;;;;;27.47;14.90;;;10.60;1.00;;;;;;6303435;22;20398;-85
2023/02/19 05:46:12;;;;;;;32.67;14.80;;;10.50;1.00;;;;;;6306700;22;20374;-86
2023/02/19 05:48:37;;;;;;;24.03;14.30;;;10.50;1.00;;;;;;6305506;22;20378;-85
2023/02/19 05:51:05;;;;;;;22.10;14.60;;;10.50;1.00;;;;;;6306447;22;20511;-85
2023/02/19 05:53:31;;;;;;;28.47;15.03;;;10.50;1.00;;;;;;6305299;22;20214;-86
2023/02/19 05:55:57;;;;;;;29.47;15.50;;;10.50;1.00;;;;;;6306052;22;20382;-85
2023/02/19 05:58:23;;;;;;;26.00;15.93;;;10.50;1.00;;;;;;6306932;22;20459;-85
2023/02/19 06:00:48;;;;;;;24.00;13.73;;;10.50;1.00;;;;;;6307160;22;20227;-86
2023/02/19 06:03:14;;;;;;;22.70;12.90;;;10.50;1.00;;;;;;6307659;22;20195;-84
2023/02/19 06:05:39;;;;;;;24.07;12.80;;;10.50;1.00;;;;;;6307505;22;20375;-86
2023/02/19 06:08:05;;;;;;;21.93;11.77;;;10.50;1.00;;;;;;6308167;22;20159;-85
2023/02/19 06:10:31;;;;;;;18.67;10.63;;;10.50;1.00;;;;;;6306548;22;20207;-85
2023/02/19 06:12:56;;;;;;;25.53;12.40;;;10.50;1.00;;;;;;6307663;22;20203;-85
2023/02/19 06:15:22;;;;;;;25.67;12.60;;;10.50;1.00;;;;;;6308511;22;20227;-85
2023/02/19 06:17:48;;;;;;;20.30;11.20;;;10.40;1.00;;;;;;6309897;22;20174;-85
2023/02/19 06:20:13;;;;;;;24.10;13.00;;;10.40;1.00;;;;;;6312651;22;20151;-84
2023/02/19 06:22:39;;;;;;;20.00;11.47;;;10.40;1.00;;;;;;6310974;22;20767;-85
2023/02/19 06:25:06;;;;;;;21.67;11.43;;;10.40;1.00;;;;;;6312129;22;20147;-86
2023/02/19 06:27:32;;;;;;;22.50;11.80;;;10.40;1.00;;;;;;6308646;22;20486;-84
2023/02/19 06:29:58;;;;;;;19.07;10.67;;;10.40;1.00;;;;;;6311417;22;20366;-84
2023/02/19 06:32:23;;;;;;;22.13;11.40;;;10.30;1.00;;;;;;6310712;22;20418;-84
2023/02/19 06:34:49;;;;;;;20.80;11.50;;;10.30;1.00;;;;;;6308563;22;20155;-86
2023/02/19 06:37:14;;;;;;;23.10;11.00;;;10.30;1.00;;;;;;6309248;22;20204;-84
2023/02/19 06:39:40;;;;;;;27.07;12.40;;;10.30;1.00;;;;;;6310952;22;20146;-84
2023/02/19 06:42:06;;;;;;;19.40;10.30;;;10.30;1.00;;;;;;6308676;22;20162;-85
2023/02/19 06:44:31;;;;;;;21.83;11.57;;;10.30;1.00;;;;;;6307509;22;20179;-84
2023/02/19 06:46:57;;;;;;;20.73;11.40;;;10.30;1.00;;;;;;6311238;22;20144;-85
2023/02/19 06:49:22;;;;;;;19.90;10.70;;;10.40;1.00;;;;;;6309299;22;20156;-85
2023/02/19 06:51:48;;;;;;;19.80;10.43;;;10.40;1.00;;;;;;6308487;22;20182;-85
2023/02/19 06:54:14;;;;;;;23.30;11.07;;;10.40;1.00;;;;;;6309462;22;20266;-84
2023/02/19 06:56:41;;;;;;;22.07;12.13;;;10.40;1.00;;;;;;6311693;22;20209;-85
2023/02/19 06:59:13;;;;;;;22.83;11.23;;;10.40;1.00;;;;;;6312339;22;20148;-84
2023/02/19 07:01:39;;;;;;;21.43;10.97;;;10.40;1.00;;;;;;6320641;22;20406;-84
2023/02/19 07:04:06;;;;;;;23.87;11.17;;;10.50;1.00;;;;;;6323585;22;20413;-85
2023/02/19 07:06:33;;;;;;;19.17;9.37;;;10.50;1.00;;;;;;6324127;22;20397;-85
2023/02/19 07:08:59;;;;;;;21.00;10.00;;;10.50;1.00;;;;;;6330161;22;20397;-85
2023/02/19 07:11:28;;;;;;;16.20;8.63;;;10.60;1.00;;;;;;6325669;22;20448;-83
2023/02/19 07:13:55;;;;;;;18.83;10.20;;;10.60;1.00;;;;;;6318505;22;20398;-84
2023/02/19 07:16:21;;;;;;;21.07;10.53;;;10.60;1.00;;;;;;6315985;22;20374;-84
2023/02/19 07:18:47;;;;;;;14.20;8.43;;;10.60;1.00;;;;;;6314573;22;20378;-84
2023/02/19 07:21:15;;;;;;;16.20;8.73;;;10.60;1.00;;;;;;6315016;22;20798;-84
2023/02/19 07:23:41;;;;;;;19.63;8.37;;;10.60;1.00;;;;;;6314554;22;20243;-84
2023/02/19 07:26:15;;;;;;;21.07;9.10;;;10.60;1.00;;;;;;6315873;22;20386;-84
2023/02/19 07:28:42;;;;;;;24.03;8.40;;;10.50;1.00;;;;;;6315272;22;20711;-84
2023/02/19 07:31:07;;;;;;;17.23;7.97;;;10.50;1.00;;;;;;6315733;22;20421;-84
2023/02/19 07:33:33;;;;;;;14.27;8.00;;;10.50;1.00;;;;;;6314849;22;20462;-84
2023/02/19 07:35:59;;;;;;;16.07;8.80;;;10.60;1.00;;;;;;6315167;22;20144;-82
2023/02/19 07:38:25;;;;;;;25.50;8.40;;;10.60;1.00;;;;;;6316176;22;20154;-83
2023/02/19 07:40:55;;;;;;;25.10;7.80;;;10.60;1.00;;;;;;6316110;22;20143;-84
2023/02/19 07:43:22;;;;;;;19.13;8.53;;;10.70;1.00;;;;;;6317175;22;20457;-84
2023/02/19 07:45:47;;;;;;;13.20;7.17;;;10.70;1.00;;;;;;6316518;22;20488;-84
2023/02/19 07:48:13;;;;;;;17.53;7.90;;;10.70;1.00;;;;;;6316790;22;20378;-82
2023/02/19 07:50:38;;;;;;;16.47;7.97;;;10.80;1.00;;;;;;6314793;22;20281;-82
2023/02/19 07:53:04;;;;;;;17.43;7.20;;;10.80;1.00;;;;;;6314073;22;20187;-84
2023/02/19 07:55:33;;;;;;;18.53;6.30;;;10.80;1.00;;;;;;6315947;22;20204;-84
2023/02/19 07:57:59;;;;;;;23.63;8.80;;;10.80;1.00;;;;;;6314448;22;20163;-84
2023/02/19 08:00:26;;;;;;;16.87;7.27;;;10.80;1.00;;;;;;6313319;22;20947;-84
2023/02/19 08:02:58;;;;;;;19.07;6.60;;;10.80;1.00;;;;;;6315841;22;20469;-85
2023/02/19 08:05:24;;;;;;;19.03;6.80;;;10.80;1.00;;;;;;6316976;22;20361;-86
2023/02/19 08:07:50;;;;;;;19.40;7.40;;;10.90;1.00;;;;;;6316575;22;20370;-84
2023/02/19 08:13:18;;;;;;;13.93;6.87;;;11.00;1.00;;;;;;6319605;22;20182;-85
2023/02/19 08:15:45;;;;;;;13.83;6.73;;;11.00;1.00;;;;;;6319744;22;20350;-84
2023/02/19 08:18:11;;;;;;;13.73;5.20;;;11.00;1.00;;;;;;6318795;22;20370;-84
2023/02/19 08:20:37;;;;;;;13.40;5.70;;;10.90;1.00;;;;;;6321115;22;20371;-84
2023/02/19 08:23:03;;;;;;;14.17;6.00;;;11.00;1.00;;;;;;6320151;22;20414;-84
2023/02/19 08:25:29;;;;;;;15.33;6.40;;;11.20;99.90;;;;;;6319515;22;20147;-83
2023/02/19 08:27:54;;;;;;;11.83;5.07;;;11.30;99.90;;;;;;6316400;22;20429;-83
2023/02/19 08:30:20;;;;;;;17.63;6.73;;;11.40;99.90;;;;;;6318527;22;20237;-84
2023/02/19 08:32:46;;;;;;;16.57;6.20;;;11.50;99.90;;;;;;6314287;22;20175;-85
2023/02/19 08:35:12;;;;;;;21.60;6.20;;;11.60;99.90;;;;;;6317174;22;20449;-83
2023/02/19 08:37:37;;;;;;;10.60;5.50;;;11.60;99.90;;;;;;6317775;22;20144;-84
2023/02/19 08:40:03;;;;;;;10.40;5.53;;;11.60;67.20;;;;;;6317611;22;20163;-84
2023/02/19 08:42:29;;;;;;;18.50;5.80;;;11.60;13.50;;;;;;6320889;22;20156;-84
2023/02/19 08:45:12;;;;;;;13.67;5.70;;;11.50;1.00;;;;;;6322549;22;20896;-84
2023/02/19 08:47:38;;;;;;;11.70;5.43;;;11.40;6.30;;;;;;6301889;22;20163;-85
2023/02/19 08:50:05;;;;;;;16.03;5.93;;;11.40;42.30;;;;;;6315143;22;20775;-85
2023/02/19 08:52:31;;;;;;;14.57;6.00;;;11.40;81.40;;;;;;6318648;22;20386;-87
2023/02/19 08:54:57;;;;;;;12.47;5.80;;;11.40;60.60;;;;;;6321366;22;20363;-84
2023/02/19 08:57:23;;;;;;;16.63;7.20;;;11.40;99.90;;;;;;6320693;22;20363;-85
2023/02/19 08:59:49;;;;;;;17.70;6.73;;;11.40;73.40;;;;;;6319308;22;20716;-85
2023/02/19 09:02:15;;;;;;;12.70;6.70;;;11.50;81.00;;;;;;6318857;22;20385;-85
2023/02/19 09:04:40;;;;;;;17.20;6.23;;;11.60;99.90;;;;;;6320451;22;20167;-85
2023/02/19 09:07:08;;;;;;;12.70;6.67;;;11.70;57.70;;;;;;6317977;22;20155;-86
2023/02/19 09:09:36;;;;;;;13.37;6.67;;;11.70;1.00;;;;;;6316753;22;20649;-86
2023/02/19 09:12:04;;;;;;;12.00;6.20;;;11.70;1.00;;;;;;6313079;22;20421;-86
2023/02/19 09:14:33;;;;;;;14.43;6.67;;;11.90;1.00;;;;;;6315676;22;20390;-86
2023/02/19 09:17:00;;;;;;;16.93;7.00;;;11.90;1.00;;;;;;6316168;22;20378;-87
2023/02/19 09:19:26;;;;;;;16.87;7.97;;;11.90;1.00;;;;;;6317104;22;20370;-85
2023/02/19 09:21:52;;;;;;;12.37;5.90;;;12.00;1.00;;;;;;6318222;22;20666;-85
2023/02/19 09:24:18;;;;;;;23.97;8.97;;;12.10;1.00;;;;;;6320855;22;20402;-85
2023/02/19 09:26:43;;;;;;;16.00;7.43;;;12.10;1.00;;;;;;6320217;22;20187;-85
2023/02/19 09:29:09;;;;;;;12.63;8.30;;;12.00;1.00;;;;;;6318505;22;20379;-86
2023/02/19 09:31:35;;;;;;;10.67;5.97;;;12.00;1.00;;;;;;6315565;22;20203;-85
2023/02/19 09:34:00;;;;;;;15.33;7.77;;;11.80;1.00;;;;;;6317322;22;20647;-85
2023/02/19 09:36:26;;;;;;;20.87;7.97;;;11.70;1.00;;;;;;6318137;22;20152;-85
2023/02/19 09:38:52;;;;;;;17.33;7.43;;;11.70;52.00;;;;;;6316717;22;20159;-87
2023/02/19 09:41:26;;;;;;;10.13;5.93;;;11.60;93.40;;;;;;6316080;22;20156;-86
2023/02/19 09:43:52;;;;;;;14.47;8.30;;;11.50;99.90;;;;;;6318679;22;20821;-85
2023/02/19 09:46:33;;;;;;;14.30;6.87;;;11.50;99.90;;;;;;6313647;22;20476;-85
2023/02/19 09:49:11;;;;;;;12.80;7.00;;;11.60;99.90;;;;;;6318726;22;20148;-86
2023/02/19 09:51:41;;;;;;;13.10;6.97;;;11.60;99.90;;;;;;6317956;22;20463;-86
2023/02/19 09:54:19;;;;;;;13.30;6.37;;;11.60;91.10;;;;;;6316715;22;20417;-86
2023/02/19 09:56:45;;;;;;;13.93;5.97;;;11.60;52.70;;;;;;6318037;22;20440;-85
2023/02/19 09:59:39;;;;;;;10.97;6.13;;;11.50;99.90;;;;;;6316946;22;20389;-86
2023/02/19 10:02:31;;;;;;;11.30;5.47;;;11.60;99.90;;;;;;6317827;22;20158;-85
2023/02/19 10:05:00;;;;;;;11.00;6.10;;;11.70;99.90;;;;;;6315738;22;20424;-86
2023/02/19 10:07:47;;;;;;;18.87;6.53;;;11.90;48.50;;;;;;6317115;22;20378;-86
2023/02/19 10:10:13;;;;;;;12.47;6.20;;;12.10;1.00;;;;;;6312495;22;20416;-86
2023/02/19 10:12:49;;;;;;;13.33;6.10;;;12.30;1.00;;;;;;6315902;22;20394;-85
2023/02/19 10:15:36;;;;;;;6.37;5.23;;;12.50;99.90;;;;;;6315086;22;20132;-85
2023/02/19 10:18:04;;;;;;;11.20;5.50;;;12.60;1.00;;;;;;6316459;22;20457;-85
2023/02/19 10:20:29;;;;;;;10.53;5.80;;;12.50;99.90;;;;;;6317222;22;20374;-86
2023/02/19 10:23:03;;;;;;;14.97;6.77;;;12.40;99.90;;;;;;6317170;22;20401;-85
2023/02/19 10:25:30;;;;;;;10.37;5.20;;;12.50;99.90;;;;;;6317668;22;20168;-85
2023/02/19 10:28:01;;;;;;;9.40;6.10;;;12.60;99.90;;;;;;6315437;22;20893;-86
2023/02/19 10:30:33;;;;;;;11.33;6.10;;;12.80;99.90;;;;;;6317505;22;20362;-85
2023/02/19 10:33:11;;;;;;;11.07;5.73;;;12.70;1.00;;;;;;6316505;22;20432;-84
2023/02/19 10:35:57;;;;;;;11.63;5.20;;;12.70;99.90;;;;;;6317962;22;20376;-86
2023/02/19 10:38:34;;;;;;;12.50;4.90;;;12.70;99.90;;;;;;6318783;22;20370;-86
2023/02/19 10:41:11;;;;;;;7.67;4.90;;;12.70;1.00;;;;;;6325889;22;20370;-87
2023/02/19 10:43:41;;;;;;;8.43;5.23;;;12.60;1.00;;;;;;6331808;22;20394;-85
2023/02/19 10:46:19;;;;;;;13.40;6.10;;;12.50;1.00;;;;;;6323161;22;20408;-85
2023/02/19 10:48:51;;;;;;;8.90;5.80;;;12.50;99.90;;;;;;6317113;22;20354;-85
2023/02/19 10:51:20;;;;;;;8.10;4.67;;;12.50;1.00;;;;;;6315100;22;20413;-85
2023/02/19 10:54:01;;;;;;;11.60;5.33;;;12.50;1.00;;;;;;6313357;22;20827;-85
2023/02/19 10:56:30;;;;;;;18.03;6.40;;;12.50;19.80;;;;;;6309660;22;20415;-85
2023/02/19 10:59:14;;;;;;;9.40;5.13;;;12.60;1.00;;;;;;6310014;22;20450;-86
2023/02/19 11:02:17;;;;;;;6.70;4.17;;;12.80;99.90;;;;;;6308730;22;20378;-85
2023/02/19 11:05:03;;;;;;;8.90;5.73;;;13.10;1.00;;;;;;6250089;22;21050;-86
2023/02/19 11:07:30;;;;;;;8.50;4.70;;;13.30;1.00;;;;;;6307982;22;20382;-85
2023/02/19 11:09:57;;;;;;;7.87;5.50;;;13.30;1.00;;;;;;6309932;22;20375;-85
2023/02/19 11:12:29;;;;;;;11.87;5.70;;;13.40;1.00;;;;;;6308658;22;20420;-85
2023/02/19 11:14:55;;;;;;;7.60;4.50;;;13.90;1.00;;;;;;6314187;22;20373;-85
2023/02/19 11:17:27;;;;;;;7.47;4.77;;;14.40;99.90;;;;;;6311232;22;20408;-85
2023/02/19 11:19:55;;;;;;;9.60;5.13;;;14.80;99.90;;;;;;6313699;22;20407;-85
2023/02/19 11:22:36;;;;;;;10.03;4.60;;;14.70;1.00;;;;;;6318493;22;20386;-86
2023/02/19 11:25:14;;;;;;;5.90;4.80;;;14.80;1.00;;;;;;6309113;22;20432;-86
2023/02/19 11:28:13;;;;;;;7.83;4.50;;;15.10;1.00;;;;;;6310096;22;20431;-86
2023/02/19 11:30:41;;;;;;;10.93;4.80;;;15.50;99.90;;;;;;6304718;22;20916;-85
2023/02/19 11:33:23;;;;;;;12.07;4.70;;;15.40;99.90;;;;;;6306152;22;20438;-86
2023/02/19 11:36:20;;;;;;;6.80;4.50;;;15.20;99.90;;;;;;6306471;22;20386;-86
2023/02/19 11:38:46;;;;;;;8.67;4.27;;;14.90;91.60;;;;;;6294522;22;20489;-86
2023/02/19 11:41:39;;;;;;;5.67;3.60;;;15.30;99.90;;;;;;6304898;22;20412;-86
2023/02/19 11:44:49;;;;;;;11.73;4.10;;;16.50;73.10;;;;;;6306517;22;20216;-86
2023/02/19 11:47:41;;;;;;;7.17;3.97;;;17.10;1.00;;;;;;6307979;22;20370;-86
2023/02/19 11:50:27;;;;;;;9.30;4.07;;;16.90;1.00;;;;;;6279262;22;20397;-86
2023/02/19 11:53:17;;;;;;;10.83;4.50;;;16.60;1.00;;;;;;6307020;22;20425;-86
2023/02/19 11:56:00;;;;;;;9.23;4.83;;;16.20;1.00;;;;;;6306784;22;20707;-83
2023/02/19 12:18:13;;;;;;;;;;;;;;;;;;;;;
2023/02/19 12:20:54;;;;;;;9.57;4.30;;;13.50;99.90;;;;;;6276488;22;20462;-83
2023/02/19 12:23:37;;;;;;;6.70;4.47;;;13.30;1.00;;;;;;6289137;22;20469;-86
2023/02/19 12:26:24;;;;;;;8.40;4.60;;;13.30;1.00;;;;;;6311829;22;20405;-86
2023/02/19 12:29:32;;;;;;;5.70;4.50;;;13.30;1.00;;;;;;6308374;22;20358;-86
2023/02/19 12:32:27;;;;;;;6.73;4.37;;;13.20;78.40;;;;;;6304491;22;20436;-86
2023/02/19 12:35:14;;;;;;;5.60;4.10;;;13.10;99.90;;;;;;6304897;22;20373;-86
2023/02/19 12:38:10;;;;;;;5.93;3.60;;;12.90;1.00;;;;;;6306555;22;20383;-86
2023/02/19 12:40:56;;;;;;;7.40;4.20;;;12.80;1.00;;;;;;6305359;22;20370;-86
2023/02/19 12:43:23;;;;;;;13.80;4.50;;;12.90;99.90;;;;;;6307735;22;20385;-84
2023/02/19 12:46:00;;;;;;;7.50;5.20;;;13.00;99.90;;;;;;6306363;22;20386;-84
2023/02/19 12:48:38;;;;;;;8.70;5.20;;;13.20;99.90;;;;;;6307526;22;20750;-84
2023/02/19 12:51:28;;;;;;;9.27;5.80;;;13.30;99.90;;;;;;6305393;22;20490;-85
2023/02/19 12:54:01;;;;;;;7.90;5.70;;;13.60;99.90;;;;;;6307937;22;20772;-85
2023/02/19 12:56:41;;;;;;;16.33;6.50;;;13.70;1.00;;;;;;6310807;22;20368;-83
2023/02/19 12:59:27;;;;;;;8.60;6.50;;;13.80;99.90;;;;;;6310412;22;20708;-85
2023/02/19 13:01:56;;;;;;;7.53;5.90;;;13.80;99.90;;;;;;6311015;22;20372;-84
2023/02/19 13:04:56;;;;;;;9.97;7.50;;;13.60;99.90;;;;;;6310371;22;20491;-86
2023/02/19 13:07:26;;;;;;;10.00;7.23;;;13.30;1.00;;;;;;6306300;22;20402;-86
2023/02/19 13:09:57;;;;;;;12.50;8.23;;;13.30;99.90;;;;;;6308848;22;20420;-86
2023/02/19 13:12:27;;;;;;;11.03;9.03;;;13.30;99.90;;;;;;6306762;22;20412;-88
2023/02/19 13:15:24;;;;;;;14.80;7.77;;;13.20;99.90;;;;;;6307443;22;20356;-86
2023/02/19 13:17:54;;;;;;;17.57;8.70;;;13.40;1.00;;;;;;6281697;22;20424;-87
2023/02/19 13:20:38;;;;;;;11.80;8.50;;;13.60;99.90;;;;;;6307776;22;20738;-87
2023/02/19 13:26:22;;;;;;;14.47;8.00;;;13.80;1.00;;;;;;6306069;22;20416;-86
2023/02/19 13:29:12;;;;;;;15.50;8.03;;;13.70;99.90;;;;;;6308105;22;20373;-87
2023/02/19 13:31:40;;;;;;;7.53;6.73;;;13.60;1.00;;;;;;6307120;22;20723;-87
2023/02/19 13:34:26;;;;;;;11.00;7.87;;;13.40;1.00;;;;;;6305459;22;20415;-86
2023/02/19 13:36:53;;;;;;;12.00;7.97;;;13.30;1.00;;;;;;6306163;22;20377;-87
2023/02/19 13:39:22;;;;;;;14.37;8.00;;;13.10;57.30;;;;;;6304757;22;20705;-86
2023/02/19 13:41:56;;;;;;;12.97;8.57;;;13.00;99.90;;;;;;6307710;22;20374;-86
2023/02/19 13:44:34;;;;;;;11.27;8.17;;;12.80;1.00;;;;;;6306038;22;20406;-87
2023/02/19 13:47:07;;;;;;;12.90;8.10;;;12.70;99.90;;;;;;6307646;22;20441;-86
2023/02/19 13:49:32;;;;;;;12.90;9.33;;;12.60;1.00;;;;;;6307946;22;20365;-86
2023/02/19 13:52:01;;;;;;;10.67;8.33;;;12.70;1.00;;;;;;6307553;22;20752;-86
2023/02/19 13:54:39;;;;;;;16.10;8.97;;;12.60;1.00;;;;;;6306910;22;20172;-85
2023/02/19 13:57:38;;;;;;;13.73;8.97;;;12.60;1.00;;;;;;6311090;22;20394;-85